Time;durP1;ratioP1;P1;durP2;ratioP2;P2;SDS_P1;SDS_P2;PMS_P1;PMS_P2;Temp;Humidity;BMP_temperature;BMP_pressure;BME280_temperature;BME280_humidity;BME280_pressure;Samples;Min_cycle;Max_cycle;Signal;HPM_P1;HPM_P2
2024/03/04 00:02:15;;;;;;;16.48;8.95;;;;;;;-142.02;100.00;61695.09;5014828;28;20050;-78
2024/03/04 00:04:42;;;;;;;18.90;9.95;;;;;;;-142.02;100.00;61695.09;5028893;28;20045;-77
2024/03/04 00:07:09;;;;;;;16.88;8.73;;;;;;;-142.02;100.00;61695.09;4980881;28;20045;-78
2024/03/04 00:09:36;;;;;;;12.32;9.02;;;;;;;-142.02;100.00;61695.09;5011587;28;20034;-77
2024/03/04 00:12:05;;;;;;;10.48;8.45;;;;;;;-142.02;100.00;61695.09;4997118;28;20042;-77
2024/03/04 00:14:34;;;;;;;;;;;;;;;-142.02;100.00;61695.09;5012063;28;20046;-76
2024/03/04 00:17:00;;;;;;;21.92;9.77;;;;;;;-142.02;100.00;61695.09;5014834;28;19984;-77
2024/03/04 00:19:27;;;;;;;16.65;9.60;;;;;;;-142.02;100.00;61695.09;5027437;28;20040;-76
2024/03/04 00:21:53;;;;;;;23.80;13.55;;;;;;;-142.02;100.00;61695.09;4996807;28;20134;-77
2024/03/04 00:24:20;;;;;;;17.52;11.07;;;;;;;-142.02;100.00;61695.09;4995014;28;20527;-76
2024/03/04 00:26:47;;;;;;;26.00;13.38;;;;;;;-142.02;100.00;61695.09;5013574;28;20467;-76
2024/03/04 00:29:13;;;;;;;25.95;14.15;;;;;;;-142.02;100.00;61695.09;4984164;28;20068;-76
2024/03/04 00:31:39;;;;;;;44.08;20.25;;;;;;;-142.02;100.00;61695.09;4985331;28;20128;-76
2024/03/04 00:34:05;;;;;;;18.83;9.63;;;;;;;-142.02;100.00;61695.09;5035799;28;20046;-76
2024/03/04 00:36:34;;;;;;;21.38;10.57;;;;;;;-142.02;100.00;61695.09;5015744;28;20396;-76
2024/03/04 00:39:00;;;;;;;18.63;11.68;;;;;;;-142.02;100.00;61695.09;5009269;28;20175;-76
2024/03/04 00:41:26;;;;;;;20.05;12.85;;;;;;;-142.02;100.00;61695.09;4996342;28;20046;-77
2024/03/04 00:43:53;;;;;;;20.25;10.35;;;;;;;-142.02;100.00;61695.09;5035979;28;20045;-77
2024/03/04 00:46:21;;;;;;;25.38;13.13;;;;;;;-142.02;100.00;61695.09;5019558;28;20096;-77
2024/03/04 00:48:48;;;;;;;19.60;9.23;;;;;;;-142.02;100.00;61695.09;5018402;28;20056;-76
2024/03/04 00:51:14;;;;;;;30.27;13.45;;;;;;;-142.02;100.00;61695.09;5021286;28;20037;-77
2024/03/04 00:53:40;;;;;;;27.52;14.88;;;;;;;-142.02;100.00;61695.09;5034633;28;20034;-77
2024/03/04 00:56:07;;;;;;;26.63;14.80;;;;;;;-142.02;100.00;61695.09;5000915;28;20045;-78
2024/03/04 00:58:35;;;;;;;35.90;15.90;;;;;;;-142.02;100.00;61695.09;5034090;28;20079;-77
2024/03/04 01:01:01;;;;;;;29.92;15.23;;;;;;;-142.02;100.00;61695.09;5015334;28;20056;-77
2024/03/04 01:03:27;;;;;;;35.05;15.57;;;;;;;-142.02;100.00;61695.09;5029513;28;20091;-77
2024/03/04 01:05:53;;;;;;;18.38;12.25;;;;;;;-142.02;100.00;61695.09;4999583;28;20069;-76
2024/03/04 01:08:21;;;;;;;22.67;11.32;;;;;;;-142.02;100.00;61695.09;5016889;28;20056;-77
2024/03/04 01:10:59;;;;;;;26.80;13.93;;;;;;;-142.02;100.00;61695.09;5014910;28;20044;-73
2024/03/04 01:13:53;;;;;;;18.60;10.43;;;;;;;-142.02;100.00;61695.09;5017986;28;20046;-72
2024/03/04 01:16:25;;;;;;;26.67;15.02;;;;;;;-142.02;100.00;61695.09;4968381;28;20041;-74
2024/03/04 01:18:56;;;;;;;20.67;13.05;;;;;;;-142.02;100.00;61695.09;4984216;28;20041;-73
2024/03/04 01:21:52;;;;;;;27.10;15.27;;;;;;;-142.02;100.00;61695.09;5007481;28;20071;-73
2024/03/04 01:24:21;;;;;;;23.55;12.90;;;;;;;-142.02;100.00;61695.09;4983799;28;20060;-73
2024/03/04 01:27:29;;;;;;;23.27;13.63;;;;;;;-142.02;100.00;61695.09;4975247;28;20058;-74
2024/03/04 01:30:17;;;;;;;16.20;9.20;;;;;;;-142.02;100.00;61695.09;5018251;28;20034;-74
2024/03/04 01:32:44;;;;;;;17.58;10.05;;;;;;;-142.02;100.00;61695.09;4983457;28;20048;-74
2024/03/04 01:35:15;;;;;;;27.77;9.88;;;;;;;-142.02;100.00;61695.09;4961506;28;20042;-73
2024/03/04 01:37:42;;;;;;;14.93;10.00;;;;;;;-142.02;100.00;61695.09;4976167;28;20095;-74
2024/03/04 01:40:14;;;;;;;23.23;10.48;;;;;;;-142.02;100.00;61695.09;5013170;28;20129;-73
2024/03/04 01:42:47;;;;;;;27.20;11.07;;;;;;;-142.02;100.00;61695.09;4995421;28;20446;-73
2024/03/04 01:45:26;;;;;;;24.65;11.80;;;;;;;-142.02;100.00;61695.09;4982355;28;20045;-73
2024/03/04 01:48:01;;;;;;;17.33;9.95;;;;;;;-142.02;100.00;61695.09;4970874;28;20053;-73
2024/03/04 01:50:55;;;;;;;27.25;10.35;;;;;;;-142.02;100.00;61695.09;4978218;28;20044;-73
2024/03/04 01:53:26;;;;;;;19.73;10.63;;;;;;;-142.02;100.00;61695.09;5002042;28;20041;-74
2024/03/04 01:56:05;;;;;;;15.75;10.68;;;;;;;-142.02;100.00;61695.09;4955077;28;20420;-73
2024/03/04 01:58:42;;;;;;;20.30;10.40;;;;;;;-142.02;100.00;61695.09;4974605;28;20046;-74
2024/03/04 02:01:18;;;;;;;26.05;11.07;;;;;;;-142.02;100.00;61695.09;4979412;28;20037;-75
2024/03/04 02:03:45;;;;;;;28.83;11.35;;;;;;;-142.02;100.00;61695.09;4990423;28;20046;-74
2024/03/04 02:06:18;;;;;;;14.85;10.27;;;;;;;-142.02;100.00;61695.09;5022331;28;20065;-74
2024/03/04 02:08:44;;;;;;;15.82;11.63;;;;;;;-142.02;100.00;61695.09;4973910;28;20136;-74
2024/03/04 02:14:08;;;;;;;27.13;11.27;;;;;;;-142.02;100.00;61695.09;4985008;28;20064;-74
2024/03/04 02:16:35;;;;;;;35.33;18.05;;;;;;;-142.02;100.00;61695.09;4974083;28;20041;-74
2024/03/04 02:19:01;;;;;;;46.22;19.27;;;;;;;-142.02;100.00;61695.09;4978786;28;20030;-74
2024/03/04 02:21:29;;;;;;;24.20;12.90;;;;;;;-142.02;100.00;61695.09;5015913;28;20059;-74
2024/03/04 02:24:02;;;;;;;32.65;12.32;;;;;;;-142.02;100.00;61695.09;4965986;28;20058;-74
2024/03/04 02:26:28;;;;;;;24.25;11.48;;;;;;;-142.02;100.00;61695.09;4978547;28;20038;-74
2024/03/04 02:28:55;;;;;;;24.02;11.55;;;;;;;-142.02;100.00;61695.09;4977110;28;20033;-74
2024/03/04 02:31:21;;;;;;;19.80;11.45;;;;;;;-142.02;100.00;61695.09;4988305;28;20034;-73
2024/03/04 02:36:54;;;;;;;26.70;11.43;;;;;;;-142.02;100.00;61695.09;5011864;28;20053;-72
2024/03/04 02:39:21;;;;;;;15.40;10.60;;;;;;;-142.02;100.00;61695.09;5011777;28;20566;-73
2024/03/04 02:41:53;;;;;;;17.23;10.88;;;;;;;-142.02;100.00;61695.09;4971943;28;20508;-74
2024/03/04 02:44:30;;;;;;;19.77;11.55;;;;;;;-142.02;100.00;61695.09;4973621;28;20050;-73
2024/03/04 02:46:56;;;;;;;17.90;9.93;;;;;;;-142.02;100.00;61695.09;5007161;28;20187;-73
2024/03/04 02:49:28;;;;;;;24.85;11.25;;;;;;;-142.02;100.00;61695.09;4989608;28;20124;-73
2024/03/04 02:52:36;;;;;;;23.25;11.63;;;;;;;-142.02;100.00;61695.09;5005670;28;20048;-73
2024/03/04 02:55:08;;;;;;;22.08;12.20;;;;;;;-142.02;100.00;61695.09;4976323;28;20096;-73
2024/03/04 02:58:03;;;;;;;17.58;11.43;;;;;;;-142.02;100.00;61695.09;4992771;28;20138;-73
2024/03/04 03:00:40;;;;;;;15.93;10.48;;;;;;;-142.02;100.00;61695.09;4997659;28;20064;-74
2024/03/04 03:03:07;;;;;;;16.45;11.30;;;;;;;-142.02;100.00;61695.09;4953158;28;20446;-73
2024/03/04 03:05:33;;;;;;;20.95;12.82;;;;;;;-142.02;100.00;61695.09;4940761;28;20089;-72
2024/03/04 03:08:21;;;;;;;23.58;11.70;;;;;;;-142.02;100.00;61695.09;4984403;28;20144;-72
2024/03/04 03:10:47;;;;;;;23.92;12.07;;;;;;;-142.02;100.00;61695.09;4966301;28;20550;-73
2024/03/04 03:13:13;;;;;;;26.65;12.60;;;;;;;-142.02;100.00;61695.09;4996084;28;20483;-73
2024/03/04 03:16:04;;;;;;;19.88;11.63;;;;;;;-142.02;100.00;61695.09;4979803;28;20037;-73
2024/03/04 03:18:31;;;;;;;28.95;12.77;;;;;;;-142.02;100.00;61695.09;4993902;28;20037;-73
2024/03/04 03:20:59;;;;;;;22.92;12.23;;;;;;;-142.02;100.00;61695.09;4979505;28;20053;-72
2024/03/04 03:23:25;;;;;;;22.42;12.35;;;;;;;-142.02;100.00;61695.09;4964479;28;20045;-73
2024/03/04 03:25:51;;;;;;;18.63;12.40;;;;;;;-142.02;100.00;61695.09;4980393;28;20056;-73
2024/03/04 03:28:18;;;;;;;21.02;13.32;;;;;;;-142.02;100.00;61695.09;4976173;28;20058;-73
2024/03/04 03:30:44;;;;;;;22.45;12.75;;;;;;;-142.02;100.00;61695.09;4960523;28;20040;-73
2024/03/04 03:33:11;;;;;;;18.73;13.77;;;;;;;-142.02;100.00;61695.09;4962999;28;20041;-72
2024/03/04 03:35:37;;;;;;;22.95;12.38;;;;;;;-142.02;100.00;61695.09;4968215;28;20044;-73
2024/03/04 03:38:10;;;;;;;24.38;13.38;;;;;;;-142.02;100.00;61695.09;4962216;28;20049;-73
2024/03/04 03:40:40;;;;;;;18.17;13.40;;;;;;;-142.02;100.00;61695.09;4971512;28;20464;-73
2024/03/04 03:43:08;;;;;;;22.15;14.88;;;;;;;-142.02;100.00;61695.09;5005110;28;20064;-72
2024/03/04 03:45:38;;;;;;;30.15;17.25;;;;;;;-142.02;100.00;61695.09;4974922;28;20189;-73
2024/03/04 03:48:05;;;;;;;32.63;15.05;;;;;;;-142.02;100.00;61695.09;4996906;28;20531;-72
2024/03/04 03:50:34;;;;;;;23.30;14.07;;;;;;;-142.02;100.00;61695.09;4966315;28;20034;-72
2024/03/04 03:53:04;;;;;;;21.58;14.23;;;;;;;-142.02;100.00;61695.09;4964403;28;20144;-75
2024/03/04 03:55:31;;;;;;;29.48;15.93;;;;;;;-142.02;100.00;61695.09;4995314;28;20140;-73
2024/03/04 03:57:58;;;;;;;24.92;12.60;;;;;;;-142.02;100.00;61695.09;4976048;28;20041;-72
2024/03/04 04:00:25;;;;;;;29.33;15.25;;;;;;;-142.02;100.00;61695.09;4996098;28;20128;-72
2024/03/04 04:02:57;;;;;;;34.67;16.55;;;;;;;-142.02;100.00;61695.09;4996571;28;20504;-73
2024/03/04 04:05:23;;;;;;;34.40;14.25;;;;;;;-142.02;100.00;61695.09;4995471;28;20041;-73
2024/03/04 04:07:49;;;;;;;25.85;14.32;;;;;;;-142.02;100.00;61695.09;4962236;28;20065;-73
2024/03/04 04:10:15;;;;;;;24.38;14.73;;;;;;;-142.02;100.00;61695.09;4963206;28;20037;-73
2024/03/04 04:12:42;;;;;;;31.08;15.05;;;;;;;-142.02;100.00;61695.09;5010365;28;20045;-73
2024/03/04 04:15:09;;;;;;;23.83;15.70;;;;;;;-142.02;100.00;61695.09;4992012;28;20053;-73
2024/03/04 04:17:44;;;;;;;23.88;14.25;;;;;;;-142.02;100.00;61695.09;4975818;28;20041;-73
2024/03/04 04:20:12;;;;;;;29.38;13.65;;;;;;;-142.02;100.00;61695.09;4963535;28;20037;-73
2024/03/04 04:22:38;;;;;;;29.38;15.63;;;;;;;-142.02;100.00;61695.09;4978845;28;20129;-74
2024/03/04 04:25:12;;;;;;;26.98;13.27;;;;;;;-142.02;100.00;61695.09;4962709;28;20050;-73
2024/03/04 04:27:39;;;;;;;22.80;13.35;;;;;;;-142.02;100.00;61695.09;4988015;28;20715;-73
2024/03/04 04:30:06;;;;;;;25.30;12.80;;;;;;;-142.02;100.00;61695.09;5005017;28;20045;-73
2024/03/04 04:32:34;;;;;;;22.67;13.13;;;;;;;-142.02;100.00;61695.09;4973089;28;20044;-73
2024/03/04 04:35:03;;;;;;;18.63;12.57;;;;;;;-142.02;100.00;61695.09;4950441;28;20529;-73
2024/03/04 04:37:32;;;;;;;25.73;14.27;;;;;;;-142.02;100.00;61695.09;4931903;28;20129;-73
2024/03/04 04:39:58;;;;;;;19.40;13.02;;;;;;;-142.02;100.00;61695.09;4993335;28;20060;-73
2024/03/04 04:42:25;;;;;;;23.88;13.95;;;;;;;5.39;61.42;101571.16;4947409;28;20466;-74
2024/03/04 04:44:51;;;;;;;23.75;12.98;;;;;;;-0.78;100.00;101150.19;4989248;28;20100;-74
2024/03/04 04:47:17;;;;;;;23.90;12.18;;;;;;;-142.02;100.00;61695.09;4979481;28;20047;-74
2024/03/04 04:49:43;;;;;;;21.60;12.70;;;;;;;-142.02;100.00;61695.09;4961945;28;20111;-79
2024/03/04 04:52:09;;;;;;;37.50;18.73;;;;;;;-142.02;100.00;61695.09;5013892;28;20037;-80
2024/03/04 04:54:38;;;;;;;43.13;20.08;;;;;;;-142.02;100.00;61695.09;4999994;28;20064;-80
2024/03/04 04:57:05;;;;;;;43.20;21.23;;;;;;;-142.02;100.00;61695.09;4992996;28;20033;-80
2024/03/04 04:59:31;;;;;;;37.65;18.65;;;;;;;-142.02;100.00;61695.09;5032076;28;20038;-79
2024/03/04 05:01:57;;;;;;;49.83;21.92;;;;;;;-142.02;100.00;61695.09;5024060;28;20120;-78
2024/03/04 05:04:23;;;;;;;38.33;20.70;;;;;;;-142.02;100.00;61695.09;5006928;28;20577;-76
2024/03/04 05:06:49;;;;;;;51.08;23.48;;;;;;;-142.02;100.00;61695.09;5008123;28;20037;-76
2024/03/04 05:09:15;;;;;;;47.28;22.23;;;;;;;-142.02;100.00;61695.09;5030498;28;20127;-77
2024/03/04 05:11:42;;;;;;;32.42;15.52;;;;;;;-142.02;100.00;61695.09;5010502;28;20040;-76
2024/03/04 05:14:09;;;;;;;44.15;21.77;;;;;;;-142.02;100.00;61695.09;4991650;28;20050;-77
2024/03/04 05:16:37;;;;;;;52.88;21.92;;;;;;;-142.02;100.00;61695.09;5007376;28;20124;-78
2024/03/04 05:19:03;;;;;;;26.05;16.27;;;;;;;-142.02;100.00;61695.09;5022798;28;20045;-78
2024/03/04 05:21:31;;;;;;;37.97;18.15;;;;;;;-0.78;100.00;101150.19;5013458;28;20041;-80
2024/03/04 05:24:35;;;;;;;44.25;20.98;;;;;;;-2.53;100.00;101148.34;5230711;23;20116;-82
2024/03/04 05:27:09;;;;;;;43.08;20.58;;;;;;;-2.89;100.00;101128.06;5012941;28;20045;-84
2024/03/04 05:29:35;;;;;;;43.40;20.60;;;;;;;-2.96;100.00;101151.75;4974211;28;20045;-80
2024/03/04 05:32:04;;;;;;;47.67;22.65;;;;;;;-2.99;100.00;101154.25;5003973;28;20038;-80
2024/03/04 05:34:30;;;;;;;41.40;21.10;;;;;;;-142.02;100.00;61695.09;4983339;28;20025;-82
2024/03/04 05:39:51;;;;;;;44.20;22.92;;;;;;;-142.02;100.00;61695.09;5367487;22;20062;-82
2024/03/04 05:42:17;;;;;;;34.53;18.83;;;;;;;-142.02;100.00;61695.09;5007538;28;20057;-82
2024/03/04 05:48:06;;;;;;;49.40;21.65;;;;;;;-1.09;100.00;101134.44;4987729;28;20109;-81
2024/03/04 05:50:32;;;;;;;27.75;13.38;;;;;;;-142.02;100.00;61695.09;4986564;28;20052;-80
2024/03/04 05:52:59;;;;;;;11.95;9.13;;;;;;;-142.02;100.00;61695.09;5000080;28;20050;-83
2024/03/04 05:55:30;;;;;;;24.77;13.77;;;;;;;-142.02;100.00;61695.09;5106766;23;20058;-81
2024/03/04 05:58:15;;;;;;;17.67;11.02;;;;;;;-142.02;100.00;61695.09;4993032;28;20039;-81
2024/03/04 06:00:42;;;;;;;34.53;16.70;;;;;;;-142.02;100.00;61695.09;4953349;28;20508;-78
2024/03/04 06:03:13;;;;;;;40.95;15.50;;;;;;;-142.02;100.00;61695.09;4985795;28;20034;-81
2024/03/04 06:05:39;;;;;;;31.65;17.35;;;;;;;-142.02;100.00;61695.09;4954966;28;20205;-80
2024/03/04 06:08:05;;;;;;;51.00;23.73;;;;;;;-142.02;100.00;61695.09;4984250;28;20615;-80
2024/03/04 06:10:42;;;;;;;43.78;23.48;;;;;;;-142.02;100.00;61695.09;5014058;28;20121;-81
2024/03/04 06:13:09;;;;;;;63.58;24.50;;;;;;;-142.02;100.00;61695.09;4986878;28;20060;-80
2024/03/04 06:15:58;;;;;;;22.50;13.95;;;;;;;-142.02;100.00;61695.09;5022993;28;20065;-82
2024/03/04 06:18:26;;;;;;;20.48;10.88;;;;;;;-142.02;100.00;61695.09;4987949;28;20046;-80
2024/03/04 06:20:52;;;;;;;13.60;8.95;;;;;;;-142.02;100.00;61695.09;5086844;23;20080;-81
2024/03/04 06:23:20;;;;;;;19.70;10.13;;;;;;;-142.02;100.00;61695.09;5057686;28;20041;-84
2024/03/04 06:25:48;;;;;;;14.52;9.13;;;;;;;-142.02;100.00;61695.09;5035515;28;20033;-81
2024/03/04 06:28:14;;;;;;;22.23;10.65;;;;;;;-142.02;100.00;61695.09;5046789;28;20048;-79
2024/03/04 06:33:50;;;;;;;16.25;11.63;;;;;;;-142.02;100.00;61695.09;5033193;28;20086;-79
2024/03/04 06:36:16;;;;;;;17.55;8.25;;;;;;;-142.02;100.00;61695.09;4990729;28;20033;-79
2024/03/04 06:38:45;;;;;;;16.80;11.15;;;;;;;-142.02;100.00;61695.09;5016653;28;20073;-79
2024/03/04 06:41:11;;;;;;;12.73;8.02;;;;;;;-142.02;100.00;61695.09;5010587;28;20137;-80
2024/03/04 06:43:38;;;;;;;10.38;8.35;;;;;;;-142.02;100.00;61695.09;5000895;28;20045;-81
2024/03/04 06:46:04;;;;;;;21.33;11.82;;;;;;;-142.02;100.00;61695.09;5001046;28;20065;-80
2024/03/04 06:48:30;;;;;;;18.10;12.40;;;;;;;-142.02;100.00;61695.09;4999447;28;20096;-80
2024/03/04 06:51:23;;;;;;;11.95;7.07;;;;;;;-142.02;100.00;61695.09;4983899;28;20045;-81
2024/03/04 06:54:10;;;;;;;14.77;9.50;;;;;;;-142.02;100.00;61695.09;4997193;28;20049;-80
2024/03/04 06:56:36;;;;;;;7.68;5.90;;;;;;;-142.02;100.00;61695.09;4972298;28;20092;-81
2024/03/04 06:59:05;;;;;;;8.82;7.85;;;;;;;-142.02;100.00;61695.09;5013135;28;20092;-81
2024/03/04 07:01:50;;;;;;;16.67;9.85;;;;;;;-142.02;100.00;61695.09;5024074;28;20104;-80
2024/03/04 07:53:41;;;;;;;19.98;10.82;;;;;;;-142.02;100.00;61695.09;5007816;28;20411;-87
2024/03/04 07:56:40;;;;;;;19.88;11.10;;;;;;;-142.02;100.00;61695.09;5084969;23;20060;-85
2024/03/04 07:59:22;;;;;;;17.90;10.10;;;;;;;-142.02;100.00;61695.09;5044693;28;20061;-83
2024/03/04 08:01:49;;;;;;;21.60;11.52;;;;;;;-142.02;100.00;61695.09;5017368;28;20039;-87
2024/03/04 08:04:45;;;;;;;;;;;;;;;-142.02;100.00;61695.09;5032236;28;20092;-84
2024/03/04 08:07:12;;;;;;;15.68;9.07;;;;;;;-142.02;100.00;61695.09;5033489;28;19931;-86
2024/03/04 08:09:46;;;;;;;15.27;10.73;;;;;;;-142.02;100.00;61695.09;5003304;28;20072;-84
2024/03/04 08:12:15;;;;;;;14.05;7.85;;;;;;;-142.02;100.00;61695.09;5022728;28;20033;-83
2024/03/04 08:14:43;;;;;;;10.98;7.43;;;;;;;-142.02;100.00;61695.09;5117553;23;20038;-88
2024/03/04 08:17:11;;;;;;;17.65;9.95;;;;;;;-142.02;100.00;61695.09;5019252;28;20055;-87
2024/03/04 08:19:39;;;;;;;7.32;6.40;;;;;;;-142.02;100.00;61695.09;4998866;28;20026;-86
2024/03/04 08:22:19;;;;;;;15.05;9.88;;;;;;;-142.02;100.00;61695.09;5006841;28;20056;-89
2024/03/04 08:24:47;;;;;;;11.35;9.88;;;;;;;-142.02;100.00;61695.09;5004559;28;20062;-86
2024/03/04 08:54:45;;;;;;;10.60;9.07;;;;;;;-142.02;100.00;61695.09;5201857;23;20058;-84
2024/03/04 08:57:23;;;;;;;13.40;9.67;;;;;;;-142.02;100.00;61695.09;5676719;23;21807;31
2024/03/04 08:59:49;;;;;;;14.95;8.70;;;;;;;-142.02;100.00;61695.09;5012935;28;20061;-84
2024/03/04 09:02:15;;;;;;;12.13;6.45;;;;;;;-142.02;100.00;61695.09;4978236;28;20039;-81
2024/03/04 09:04:41;;;;;;;12.30;8.98;;;;;;;-142.02;100.00;61695.09;5010221;28;20053;-83
2024/03/04 09:07:09;;;;;;;9.65;7.55;;;;;;;-142.02;100.00;61695.09;4980815;28;20547;-83
2024/03/04 09:09:35;;;;;;;10.80;8.90;;;;;;;-142.02;100.00;61695.09;4981745;28;20038;-82
2024/03/04 09:12:03;;;;;;;13.88;8.85;;;;;;;-142.02;100.00;61695.09;5009386;28;20077;-83
2024/03/04 09:14:30;;;;;;;14.98;10.23;;;;;;;-142.02;100.00;61695.09;4992163;28;20053;-82
2024/03/04 09:16:56;;;;;;;9.48;7.50;;;;;;;-142.02;100.00;61695.09;4998584;28;20067;-83
2024/03/04 09:19:22;;;;;;;13.02;8.05;;;;;;;-142.02;100.00;61695.09;4983068;28;20046;-83
2024/03/04 09:21:48;;;;;;;16.17;9.95;;;;;;;-142.02;100.00;61695.09;4999090;28;20101;-82
2024/03/04 09:24:15;;;;;;;20.92;10.77;;;;;;;-142.02;100.00;61695.09;4994261;28;20053;-83
2024/03/04 09:26:46;;;;;;;15.57;9.27;;;;;;;-142.02;100.00;61695.09;4999423;28;20045;-82
2024/03/04 09:29:12;;;;;;;;;;;;;;;-142.02;100.00;61695.09;4985237;28;20028;-83
2024/03/04 09:31:44;;;;;;;14.88;9.60;;;;;;;-142.02;100.00;61695.09;5013319;28;19921;-82
2024/03/04 09:34:10;;;;;;;11.38;9.05;;;;;;;-142.02;100.00;61695.09;5009139;28;20045;-82
2024/03/04 09:36:36;;;;;;;14.15;8.32;;;;;;;-142.02;100.00;61695.09;5010252;28;20040;-82
2024/03/04 09:39:05;;;;;;;9.88;7.82;;;;;;;-142.02;100.00;61695.09;5025994;28;20057;-82
2024/03/04 09:41:50;;;;;;;10.85;8.32;;;;;;;2.36;70.17;101052.34;5009396;28;20056;-81
2024/03/04 09:44:17;;;;;;;14.75;10.30;;;;;;;2.59;70.17;101050.56;5011034;28;20103;-82
2024/03/04 09:46:44;;;;;;;13.63;8.63;;;;;;;2.71;70.60;101044.50;5024754;28;20037;-81
2024/03/04 09:49:10;;;;;;;19.90;9.60;;;;;;;3.22;68.36;101038.22;5009529;28;20064;-82
2024/03/04 09:51:36;;;;;;;7.30;6.60;;;;;;;2.60;68.31;101042.81;4993847;28;20034;-81
2024/03/04 09:54:02;;;;;;;11.85;8.90;;;;;;;2.39;68.86;101026.59;5010170;28;20053;-82
2024/03/04 09:56:29;;;;;;;11.52;7.40;;;;;;;2.08;69.43;101024.06;5029488;28;20045;-82
2024/03/04 09:58:55;;;;;;;13.23;8.02;;;;;;;-142.02;100.00;61695.09;5024488;28;20526;-82
2024/03/04 10:01:24;;;;;;;13.43;8.75;;;;;;;-142.02;100.00;61695.09;4991198;28;20034;-81
2024/03/04 10:03:51;;;;;;;8.70;7.53;;;;;;;-142.02;100.00;61695.09;5006492;28;20073;-83
2024/03/04 10:06:17;;;;;;;8.38;7.55;;;;;;;-142.02;100.00;61695.09;5012390;28;20056;-82
2024/03/04 10:08:44;;;;;;;6.75;6.00;;;;;;;-142.02;100.00;61695.09;5021684;28;20094;-81
2024/03/04 10:11:10;;;;;;;4.43;4.03;;;;;;;-142.02;100.00;61695.09;5031062;28;20058;-83
2024/03/04 10:13:36;;;;;;;4.38;3.97;;;;;;;-142.02;100.00;61695.09;5028380;28;20033;-82
2024/03/04 10:16:04;;;;;;;7.13;5.07;;;;;;;-142.02;100.00;61695.09;5032595;28;20030;-83
2024/03/04 10:18:31;;;;;;;10.30;6.72;;;;;;;-142.02;100.00;61695.09;4995826;28;20057;-83
2024/03/04 10:20:57;;;;;;;17.08;7.32;;;;;;;-142.02;100.00;61695.09;5027677;28;20041;-83
2024/03/04 10:23:23;;;;;;;6.18;5.25;;;;;;;-142.02;100.00;61695.09;5007541;28;20093;-83
2024/03/04 10:26:06;;;;;;;11.60;8.38;;;;;;;-142.02;100.00;61695.09;5026023;28;20050;-83
2024/03/04 10:28:40;;;;;;;5.85;5.35;;;;;;;-142.02;100.00;61695.09;5000208;28;20141;-82
2024/03/04 10:31:07;;;;;;;5.50;5.00;;;;;;;-142.02;100.00;61695.09;5015021;28;20070;-83
2024/03/04 10:33:33;;;;;;;6.18;5.55;;;;;;;-142.02;100.00;61695.09;5007695;28;20046;-81
2024/03/04 10:36:31;;;;;;;5.40;4.90;;;;;;;-142.02;100.00;61695.09;5029170;28;20520;-84
2024/03/04 10:38:57;;;;;;;12.98;8.05;;;;;;;-142.02;100.00;61695.09;5012108;28;20021;-83
2024/03/04 10:41:25;;;;;;;6.90;5.75;;;;;;;-142.02;100.00;61695.09;5014109;28;20559;-83
2024/03/04 10:43:52;;;;;;;9.82;7.13;;;;;;;-142.02;100.00;61695.09;5029560;28;20045;-84
2024/03/04 10:46:19;;;;;;;9.00;6.20;;;;;;;-142.02;100.00;61695.09;5029850;28;20034;-82
2024/03/04 10:49:04;;;;;;;6.10;5.10;;;;;;;-142.02;100.00;61695.09;4998807;28;20038;-83
2024/03/04 10:51:30;;;;;;;6.50;3.90;;;;;;;-142.02;100.00;61695.09;4992879;28;20077;-81
2024/03/04 10:53:59;;;;;;;10.30;6.45;;;;;;;-142.02;100.00;61695.09;4993062;28;20057;-82
2024/03/04 10:56:26;;;;;;;6.32;5.00;;;;;;;-142.02;100.00;61695.09;5002561;28;20041;-80
2024/03/04 10:58:52;;;;;;;7.70;4.82;;;;;;;-142.02;100.00;61695.09;5002015;28;20080;-82
2024/03/04 11:01:19;;;;;;;7.00;4.22;;;;;;;-142.02;100.00;61695.09;4999065;28;20046;-82
2024/03/04 11:03:54;;;;;;;7.53;6.15;;;;;;;-142.02;100.00;61695.09;4997432;28;20097;-81
2024/03/04 11:06:21;;;;;;;7.15;5.75;;;;;;;-142.02;100.00;61695.09;4998007;28;20040;-81
2024/03/04 11:08:50;;;;;;;5.20;4.70;;;;;;;-142.02;100.00;61695.09;5019820;28;20936;-81
2024/03/04 11:11:17;;;;;;;12.00;6.38;;;;;;;-142.02;100.00;61695.09;5006118;28;20038;-80
2024/03/04 11:13:57;;;;;;;8.05;5.65;;;;;;;-142.02;100.00;61695.09;5030201;28;20460;-82
2024/03/04 11:16:53;;;;;;;7.60;6.10;;;;;;;-142.02;100.00;61695.09;4988041;28;20428;-81
2024/03/04 11:19:38;;;;;;;7.75;6.22;;;;;;;-142.02;100.00;61695.09;4991655;28;20086;-81
2024/03/04 11:22:04;;;;;;;15.88;7.28;;;;;;;-142.02;100.00;61695.09;5004136;28;20038;-81
2024/03/04 11:24:34;;;;;;;7.97;5.97;;;;;;;-142.02;100.00;61695.09;4987294;28;20053;-83
2024/03/04 11:27:00;;;;;;;6.28;4.70;;;;;;;-142.02;100.00;61695.09;5003156;28;20080;-82
2024/03/04 11:29:26;;;;;;;10.25;6.88;;;;;;;-142.02;100.00;61695.09;5002868;28;20068;-81
2024/03/04 11:31:54;;;;;;;5.82;5.32;;;;;;;-142.02;100.00;61695.09;5003077;28;20048;-82
2024/03/04 11:34:20;;;;;;;6.90;6.28;;;;;;;-142.02;100.00;61695.09;5006272;28;20476;-81
2024/03/04 11:36:48;;;;;;;7.40;6.57;;;;;;;-142.02;100.00;61695.09;5022546;28;20053;-81
2024/03/04 11:39:16;;;;;;;5.93;4.90;;;;;;;-142.02;100.00;61695.09;4972719;28;20054;-82
2024/03/04 11:41:49;;;;;;;5.65;4.18;;;;;;;-142.02;100.00;61695.09;5007945;28;20038;-83
2024/03/04 11:44:29;;;;;;;10.88;7.78;;;;;;;2.72;66.34;100949.09;5025702;28;20054;-82
2024/03/04 11:46:55;;;;;;;9.23;7.70;;;;;;;2.83;66.30;100955.06;5026792;28;20029;-82
2024/03/04 11:49:24;;;;;;;5.82;4.65;;;;;;;3.02;65.52;100954.09;4993690;28;20041;-82
2024/03/04 11:52:04;;;;;;;7.63;5.05;;;;;;;2.75;66.16;100951.66;5007187;28;20049;-81
2024/03/04 11:54:34;;;;;;;5.80;5.30;;;;;;;2.90;66.43;100943.88;5009651;28;20539;-82
2024/03/04 11:57:02;;;;;;;12.52;7.57;;;;;;;3.04;66.21;100946.34;4992993;28;20025;-82
2024/03/04 11:59:29;;;;;;;8.90;7.70;;;;;;;3.28;66.09;100945.28;5025884;28;20050;-81
2024/03/04 12:01:56;;;;;;;6.88;5.50;;;;;;;2.90;65.15;100941.28;5029567;28;20116;-81
2024/03/04 12:04:24;;;;;;;9.65;6.10;;;;;;;2.75;65.40;100943.94;5025827;28;20060;-81
2024/03/04 12:06:50;;;;;;;8.10;6.25;;;;;;;2.72;65.18;100941.38;5012349;28;20041;-81
2024/03/04 12:09:19;;;;;;;7.43;6.07;;;;;;;2.73;65.29;100919.03;4980094;28;20026;-81
2024/03/04 12:11:45;;;;;;;5.90;4.78;;;;;;;2.76;64.75;100929.31;5011730;28;20038;-80
2024/03/04 12:14:11;;;;;;;9.25;5.95;;;;;;;2.82;64.83;100924.97;5010677;28;20041;-81
2024/03/04 12:16:37;;;;;;;9.68;6.95;;;;;;;3.11;65.05;100922.19;5027204;28;20041;-82
2024/03/04 12:19:05;;;;;;;10.40;7.32;;;;;;;3.43;64.44;100919.38;4992278;28;20049;-82
2024/03/04 12:21:32;;;;;;;11.57;5.57;;;;;;;2.97;63.92;100924.91;5005957;28;20052;-80
2024/03/04 12:23:59;;;;;;;7.07;6.38;;;;;;;3.17;65.01;100923.00;4980044;28;20056;-81
2024/03/04 12:26:25;;;;;;;8.35;5.55;;;;;;;3.17;64.76;100917.84;5018118;28;20053;-80
2024/03/04 12:29:10;;;;;;;12.45;7.25;;;;;;;3.17;64.86;100913.59;4985062;28;20061;-81
2024/03/04 12:31:37;;;;;;;6.50;5.80;;;;;;;3.17;63.91;100912.69;5016258;28;20133;-81
2024/03/04 12:34:04;;;;;;;7.15;6.03;;;;;;;3.25;63.66;100911.78;4995170;28;20065;-80
2024/03/04 12:36:30;;;;;;;6.18;4.57;;;;;;;3.02;63.33;100907.66;5018536;28;20042;-80
2024/03/04 12:38:56;;;;;;;10.23;7.40;;;;;;;3.07;63.81;100911.09;5003644;28;20042;-80
2024/03/04 12:41:24;;;;;;;8.23;6.38;;;;;;;3.06;64.03;100896.47;5019446;28;20046;-80
2024/03/04 12:43:50;;;;;;;14.05;5.13;;;;;;;3.03;63.40;100886.16;4979877;28;20468;-81
2024/03/04 12:46:17;;;;;;;4.18;3.50;;;;;;;2.80;63.19;100882.91;4989909;28;20511;-80
2024/03/04 12:48:43;;;;;;;6.65;5.75;;;;;;;2.76;63.47;100883.78;4988978;28;20042;-80
2024/03/04 12:51:13;;;;;;;8.82;5.63;;;;;;;2.90;63.51;100879.38;5008676;28;20563;-81